createdAt,value
2023-05-02T00:00:49.952Z,234.43
2023-05-02T00:01:50.024Z,240.66
2023-05-02T00:02:50.198Z,238.84
2023-05-02T00:03:50.112Z,236.47
2023-05-02T00:04:50.015Z,236.08
2023-05-02T00:05:50.010Z,233.33
2023-05-02T00:06:50.143Z,234.36
2023-05-02T00:07:50.060Z,237.78
2023-05-02T00:08:50.064Z,234.93
2023-05-02T00:09:50.127Z,236.03
2023-05-02T00:10:50.118Z,236.62
2023-05-02T00:11:50.139Z,233.92
2023-05-02T00:12:50.174Z,228.36
2023-05-02T00:13:50.222Z,228.79
2023-05-02T00:14:50.220Z,230.77
2023-05-02T00:15:50.267Z,232.26
2023-05-02T00:16:50.247Z,228.20
2023-05-02T00:17:50.282Z,225.90
2023-05-02T00:18:50.275Z,228.29
2023-05-02T00:19:50.270Z,227.51
2023-05-02T00:20:50.266Z,231.89
2023-05-02T00:21:50.331Z,230.46
2023-05-02T00:22:50.300Z,226.00
2023-05-02T00:23:50.340Z,224.09
2023-05-02T00:24:50.329Z,224.07
2023-05-02T00:25:50.371Z,224.24
2023-05-02T00:26:50.375Z,228.21
2023-05-02T00:27:50.408Z,230.98
2023-05-02T00:28:50.430Z,232.95
2023-05-02T00:29:50.448Z,232.07
2023-05-02T00:30:50.474Z,236.40
2023-05-02T00:31:50.467Z,234.46
2023-05-02T00:32:50.601Z,234.64
2023-05-02T00:33:50.509Z,235.48
2023-05-02T00:34:50.529Z,237.78
2023-05-02T00:35:50.533Z,233.58
2023-05-02T00:36:50.575Z,233.96
2023-05-02T00:37:50.632Z,240.80
2023-05-02T00:38:50.643Z,247.87
2023-05-02T00:39:50.657Z,249.68
2023-05-02T00:40:50.666Z,247.60
2023-05-02T00:41:50.670Z,250.00
2023-05-02T00:42:50.696Z,250.00
2023-05-02T00:43:50.714Z,250.00
2023-05-02T00:44:50.724Z,245.96
2023-05-02T00:45:50.728Z,248.24
2023-05-02T00:46:50.755Z,249.51
2023-05-02T00:47:50.784Z,246.86
2023-05-02T00:48:50.819Z,248.27
2023-05-02T00:49:50.761Z,247.36
2023-05-02T00:50:50.732Z,243.86
2023-05-02T00:51:50.765Z,245.68
2023-05-02T00:52:50.775Z,244.67
2023-05-02T00:53:50.797Z,244.53
2023-05-02T00:54:50.841Z,232.44
2023-05-02T00:55:50.835Z,227.73
2023-05-02T00:56:50.841Z,222.28
2023-05-02T00:57:50.852Z,221.76
2023-05-02T00:58:50.857Z,225.44
2023-05-02T00:59:50.851Z,226.30
2023-05-02T01:00:50.866Z,224.13
2023-05-02T01:01:50.970Z,220.89
2023-05-02T01:02:51.042Z,225.60
2023-05-02T01:03:51.133Z,229.21
2023-05-02T01:04:50.950Z,231.53
2023-05-02T01:05:50.921Z,236.32
2023-05-02T01:06:51.022Z,236.87
2023-05-02T01:07:50.983Z,234.94
2023-05-02T01:08:51.008Z,237.74
2023-05-02T01:09:51.028Z,240.42
2023-05-02T01:10:51.013Z,240.20
2023-05-02T01:11:51.040Z,246.03
2023-05-02T01:12:51.069Z,246.37
2023-05-02T01:13:51.091Z,249.66
2023-05-02T01:14:51.138Z,248.92
2023-05-02T01:15:51.234Z,248.88
2023-05-02T01:16:51.159Z,249.68
2023-05-02T01:17:51.253Z,250.09
2023-05-02T01:18:51.201Z,248.95
2023-05-02T01:19:51.260Z,249.65
2023-05-02T01:20:51.243Z,246.53
2023-05-02T01:21:51.261Z,247.09
2023-05-02T01:22:51.277Z,245.19
2023-05-02T01:23:51.282Z,242.15
2023-05-02T01:24:51.325Z,237.29
2023-05-02T01:25:51.352Z,238.50
2023-05-02T01:26:51.363Z,233.90
2023-05-02T01:27:51.427Z,233.84
2023-05-02T01:28:51.444Z,231.96
2023-05-02T01:29:51.503Z,229.24
2023-05-02T01:30:51.490Z,225.38
2023-05-02T01:31:52.481Z,227.59
2023-05-02T01:32:51.641Z,226.95
2023-05-02T01:33:51.575Z,228.94
2023-05-02T01:34:51.647Z,224.96
2023-05-02T01:35:51.671Z,223.97
2023-05-02T01:36:51.684Z,226.32
2023-05-02T01:37:51.707Z,227.71
2023-05-02T01:38:51.734Z,227.31
2023-05-02T01:39:51.770Z,224.62
2023-05-02T01:40:51.799Z,222.95
2023-05-02T01:41:51.803Z,221.24
2023-05-02T01:42:51.811Z,224.70
2023-05-02T01:43:51.858Z,227.60
2023-05-02T01:44:51.900Z,228.41
2023-05-02T01:45:51.931Z,223.80
2023-05-02T01:46:52.032Z,219.47
2023-05-02T01:47:51.958Z,218.26
2023-05-02T01:48:51.986Z,218.81
2023-05-02T01:49:52.021Z,219.57
2023-05-02T01:50:52.035Z,216.84
2023-05-02T01:51:52.086Z,220.28
2023-05-02T01:52:52.123Z,218.49
2023-05-02T01:53:52.129Z,217.93
2023-05-02T01:54:52.167Z,220.35
2023-05-02T01:55:52.186Z,221.53
2023-05-02T01:56:52.213Z,219.18
2023-05-02T01:57:52.216Z,218.09
2023-05-02T01:58:52.261Z,213.68
2023-05-02T01:59:52.303Z,213.09
2023-05-02T02:00:52.426Z,212.96
2023-05-02T02:01:52.368Z,214.85
2023-05-02T02:02:52.427Z,212.50
2023-05-02T02:03:52.499Z,215.43
2023-05-02T02:04:52.504Z,220.31
2023-05-02T02:05:52.523Z,218.64
2023-05-02T02:06:52.664Z,217.79
2023-05-02T02:07:52.558Z,212.53
2023-05-02T02:08:52.589Z,212.35
2023-05-02T02:09:52.612Z,216.34
2023-05-02T02:10:52.645Z,214.64
2023-05-02T02:11:52.682Z,208.66
2023-05-02T02:12:52.696Z,208.28
2023-05-02T02:13:52.756Z,210.46
2023-05-02T02:14:52.779Z,209.28
2023-05-02T02:15:52.813Z,203.01
2023-05-02T02:16:52.880Z,202.76
2023-05-02T02:17:52.929Z,203.91
2023-05-02T02:18:52.925Z,204.71
2023-05-02T02:19:52.974Z,206.03
2023-05-02T02:20:52.989Z,206.95
2023-05-02T02:21:53.073Z,204.35
2023-05-02T02:22:53.075Z,207.24
2023-05-02T02:23:53.123Z,209.21
2023-05-02T02:24:54.400Z,200.20
2023-05-02T02:25:53.199Z,205.66
2023-05-02T02:26:53.239Z,208.72
2023-05-02T02:27:53.274Z,212.85
2023-05-02T02:28:53.315Z,209.78
2023-05-02T02:29:53.394Z,216.13
2023-05-02T02:30:53.429Z,214.66
2023-05-02T02:31:53.418Z,217.27
2023-05-02T02:32:53.498Z,214.96
2023-05-02T02:33:53.441Z,220.12
2023-05-02T02:34:53.509Z,219.05
2023-05-02T02:35:53.536Z,223.70
2023-05-02T02:36:53.606Z,223.80
2023-05-02T02:37:53.648Z,225.57
2023-05-02T02:38:53.659Z,227.23
2023-05-02T02:39:53.702Z,231.72
2023-05-02T02:40:53.783Z,237.78
2023-05-02T02:41:53.778Z,240.92
2023-05-02T02:42:53.832Z,237.93
2023-05-02T02:43:53.878Z,234.65
2023-05-02T02:44:53.902Z,236.71
2023-05-02T02:45:53.996Z,242.60
2023-05-02T02:46:53.982Z,241.18
2023-05-02T02:47:54.116Z,241.73
2023-05-02T02:48:54.090Z,238.26
2023-05-02T02:49:54.104Z,236.25
2023-05-02T02:50:54.144Z,239.61
2023-05-02T02:51:54.212Z,245.84
2023-05-02T02:52:54.234Z,246.23
2023-05-02T02:53:54.270Z,246.01
2023-05-02T02:54:54.331Z,248.14
2023-05-02T02:55:54.385Z,250.00
2023-05-02T02:56:54.409Z,249.15
2023-05-02T02:57:54.469Z,249.04
2023-05-02T02:58:54.485Z,248.17
2023-05-02T02:59:54.564Z,249.40
2023-05-02T03:00:54.605Z,248.05
2023-05-02T03:01:54.658Z,249.35
2023-05-02T03:02:54.704Z,250.00
2023-05-02T03:03:54.856Z,249.24
2023-05-02T03:04:54.792Z,248.91
2023-05-02T03:05:54.818Z,249.31
2023-05-02T03:06:54.942Z,246.76
2023-05-02T03:07:54.908Z,248.11
2023-05-02T03:08:54.941Z,248.73
2023-05-02T03:09:55.028Z,250.02
2023-05-02T03:10:55.056Z,249.69
2023-05-02T03:11:55.108Z,249.49
2023-05-02T03:12:55.161Z,248.63
2023-05-02T03:13:55.170Z,249.20
2023-05-02T03:14:55.230Z,249.28
2023-05-02T03:15:55.378Z,249.78
2023-05-02T03:16:55.299Z,244.36
2023-05-02T03:17:55.394Z,242.17
2023-05-02T03:18:55.370Z,244.65
2023-05-02T03:19:55.459Z,242.19
2023-05-02T03:20:55.437Z,246.32
2023-05-02T03:21:55.515Z,247.72
2023-05-02T03:22:55.529Z,245.38
2023-05-02T03:23:55.592Z,243.74
2023-05-02T03:24:55.607Z,241.33
2023-05-02T03:25:55.646Z,239.25
2023-05-02T03:26:55.708Z,237.07
2023-05-02T03:27:55.702Z,233.13
2023-05-02T03:28:55.769Z,227.65
2023-05-02T03:29:55.851Z,226.99
2023-05-02T03:30:55.808Z,225.62
2023-05-02T03:31:55.944Z,224.82
2023-05-02T03:32:55.938Z,224.89
2023-05-02T03:33:55.896Z,225.38
2023-05-02T03:34:55.957Z,230.78
2023-05-02T03:35:55.982Z,237.13
2023-05-02T03:36:56.005Z,242.10
2023-05-02T03:37:56.020Z,242.27
2023-05-02T03:38:56.059Z,241.19
2023-05-02T03:39:56.065Z,244.84
2023-05-02T03:40:56.110Z,243.84
2023-05-02T03:41:56.139Z,249.43
2023-05-02T03:42:56.179Z,248.37
2023-05-02T03:43:56.217Z,248.06
2023-05-02T03:44:56.253Z,249.76
2023-05-02T03:45:56.280Z,248.46
2023-05-02T03:46:56.371Z,248.93
2023-05-02T03:47:56.395Z,242.72
2023-05-02T03:48:56.355Z,241.51
2023-05-02T03:49:56.397Z,237.45
2023-05-02T03:50:56.440Z,240.67
2023-05-02T03:51:56.458Z,236.44
2023-05-02T03:52:56.630Z,236.15
2023-05-02T03:53:56.551Z,234.54
2023-05-02T03:54:56.616Z,232.12
2023-05-02T03:55:56.663Z,230.78
2023-05-02T03:56:56.697Z,225.28
2023-05-02T03:57:56.757Z,223.06
2023-05-02T03:58:56.838Z,229.67
2023-05-02T03:59:56.960Z,230.22
2023-05-02T04:00:56.927Z,229.64
2023-05-02T04:01:56.998Z,227.22
2023-05-02T04:02:57.094Z,226.03
2023-05-02T04:03:57.204Z,227.67
2023-05-02T04:04:57.112Z,232.20
2023-05-02T04:05:57.171Z,228.01
2023-05-02T04:06:57.198Z,228.46
2023-05-02T04:07:57.251Z,226.65
2023-05-02T04:08:57.270Z,221.12
2023-05-02T04:09:57.445Z,225.90
2023-05-02T04:10:57.385Z,229.24
2023-05-02T04:11:57.449Z,232.12
2023-05-02T04:12:57.468Z,226.58
2023-05-02T04:13:57.487Z,225.94
2023-05-02T04:14:57.564Z,227.62
2023-05-02T04:15:57.563Z,229.41
2023-05-02T04:16:57.657Z,226.60
2023-05-02T04:17:57.645Z,227.17
2023-05-02T04:18:57.725Z,233.91
2023-05-02T04:19:57.901Z,235.53
2023-05-02T04:20:57.772Z,235.58
2023-05-02T04:21:57.821Z,231.25
2023-05-02T04:22:57.825Z,230.44
2023-05-02T04:23:57.865Z,231.40
2023-05-02T04:24:58.051Z,228.09
2023-05-02T04:25:57.976Z,230.70
2023-05-02T04:26:58.002Z,233.11
2023-05-02T04:27:58.060Z,233.19
2023-05-02T04:28:58.072Z,233.42
2023-05-02T04:29:58.610Z,238.98
2023-05-02T04:30:58.184Z,237.93
2023-05-02T04:31:58.194Z,236.42
2023-05-02T04:32:58.270Z,236.05
2023-05-02T04:33:58.303Z,236.60
2023-05-02T04:34:58.309Z,238.46
2023-05-02T04:35:58.367Z,232.22
2023-05-02T04:36:58.371Z,230.31
2023-05-02T04:37:58.428Z,230.44
2023-05-02T04:38:58.448Z,232.60
2023-05-02T04:39:58.590Z,236.05
2023-05-02T04:40:58.518Z,237.15
2023-05-02T04:41:58.546Z,234.66
2023-05-02T04:42:58.589Z,236.26
2023-05-02T04:43:58.638Z,235.10
2023-05-02T04:44:58.652Z,231.43
2023-05-02T04:45:58.701Z,231.38
2023-05-02T04:46:58.692Z,233.12
2023-05-02T04:47:58.768Z,229.04
2023-05-02T04:48:58.805Z,229.27
2023-05-02T04:49:58.995Z,230.34
2023-05-02T04:50:58.873Z,225.59
2023-05-02T04:51:58.921Z,221.03
2023-05-02T04:52:58.921Z,219.17
2023-05-02T04:53:58.999Z,214.29
2023-05-02T04:54:59.094Z,213.50
2023-05-02T04:55:59.092Z,211.53
2023-05-02T04:56:59.134Z,207.24
2023-05-02T04:57:59.186Z,204.78
2023-05-02T04:58:59.254Z,195.92
2023-05-02T04:59:59.548Z,195.89
2023-05-02T05:00:59.346Z,197.74
2023-05-02T05:01:59.485Z,203.21
2023-05-02T05:03:01.723Z,200.61
2023-05-02T05:03:59.781Z,201.15
2023-05-02T05:04:59.759Z,206.97
2023-05-02T05:05:59.835Z,203.57
2023-05-02T05:06:59.853Z,202.49
2023-05-02T05:07:59.950Z,203.56
2023-05-02T05:08:59.929Z,204.86
2023-05-02T05:10:00.508Z,208.64
2023-05-02T05:11:00.024Z,217.62
2023-05-02T05:12:00.111Z,224.69
2023-05-02T05:13:00.200Z,231.66
2023-05-02T05:14:00.159Z,231.75
2023-05-02T05:15:00.218Z,234.73
2023-05-02T05:16:00.310Z,237.14
2023-05-02T05:17:00.281Z,241.05
2023-05-02T05:18:00.351Z,243.26
2023-05-02T05:19:00.350Z,245.21
2023-05-02T05:20:00.649Z,247.21
2023-05-02T05:21:00.418Z,246.85
2023-05-02T05:22:00.449Z,246.35
2023-05-02T05:23:00.446Z,250.00
2023-05-02T05:24:00.520Z,249.27
2023-05-02T05:25:00.525Z,248.36
2023-05-02T05:26:00.520Z,249.21
2023-05-02T05:27:00.556Z,248.51
2023-05-02T05:28:00.598Z,246.49
2023-05-02T05:29:00.600Z,244.45
2023-05-02T05:30:00.965Z,247.36
2023-05-02T05:31:00.618Z,249.93
2023-05-02T05:32:00.723Z,246.86
2023-05-02T05:33:00.762Z,250.00
2023-05-02T05:34:00.776Z,250.00
2023-05-02T05:35:00.711Z,250.00
2023-05-02T05:36:00.748Z,250.00
2023-05-02T05:37:00.738Z,250.04
2023-05-02T05:38:01.006Z,250.35
2023-05-02T05:39:00.787Z,250.00
2023-05-02T05:40:01.083Z,248.15
2023-05-02T05:41:01.528Z,249.56
2023-05-02T05:42:00.924Z,248.52
2023-05-02T05:43:00.971Z,250.12
2023-05-02T05:44:00.977Z,251.43
2023-05-02T05:45:01.011Z,249.69
2023-05-02T05:46:00.969Z,252.16
2023-05-02T05:47:01.056Z,255.77
2023-05-02T05:48:01.023Z,250.44
2023-05-02T05:49:01.037Z,250.57
2023-05-02T05:50:01.389Z,251.80
2023-05-02T05:51:01.133Z,250.00
2023-05-02T05:52:01.182Z,249.26
2023-05-02T05:53:01.227Z,250.00
2023-05-02T05:54:01.260Z,250.00
2023-05-02T05:55:01.868Z,251.14
2023-05-02T05:56:01.343Z,257.57
2023-05-02T05:57:01.424Z,250.96
2023-05-02T05:58:01.394Z,250.05
2023-05-02T05:59:01.420Z,250.00
2023-05-02T06:00:01.820Z,246.76
2023-05-02T06:01:01.666Z,249.89
2023-05-02T06:02:01.495Z,249.15
2023-05-02T06:03:01.672Z,247.21
2023-05-02T06:04:01.643Z,250.10
2023-05-02T06:05:02.113Z,249.23
2023-05-02T06:06:01.842Z,248.64
2023-05-02T06:07:01.721Z,248.70
2023-05-02T06:08:01.752Z,250.00
2023-05-02T06:09:01.817Z,249.73
2023-05-02T06:10:02.104Z,249.16
2023-05-02T06:11:01.814Z,250.00
2023-05-02T06:12:01.849Z,250.00
2023-05-02T06:13:01.827Z,250.00
2023-05-02T06:14:01.869Z,248.77
2023-05-02T06:15:01.918Z,250.15
2023-05-02T06:16:01.998Z,249.29
2023-05-02T06:17:02.017Z,250.00
2023-05-02T06:18:02.005Z,249.80
2023-05-02T06:19:01.964Z,249.06
2023-05-02T06:20:02.699Z,249.73
2023-05-02T06:21:02.005Z,250.00
2023-05-02T06:22:02.058Z,250.00
2023-05-02T06:23:02.078Z,249.88
2023-05-02T06:24:02.156Z,250.00
2023-05-02T06:25:02.185Z,250.03
2023-05-02T06:26:02.238Z,249.65
2023-05-02T06:27:02.307Z,250.00
2023-05-02T06:28:02.307Z,249.75
2023-05-02T06:29:02.385Z,249.93
2023-05-02T06:30:02.837Z,248.20
2023-05-02T06:31:02.575Z,247.67
2023-05-02T06:32:02.604Z,247.56
2023-05-02T06:33:02.626Z,248.73
2023-05-02T06:34:02.622Z,249.06
2023-05-02T06:35:02.698Z,249.73
2023-05-02T06:36:02.670Z,249.96
2023-05-02T06:37:02.685Z,249.96
2023-05-02T06:38:02.738Z,250.00
2023-05-02T06:39:02.765Z,250.00
2023-05-02T06:40:03.302Z,249.04
2023-05-02T06:41:02.867Z,249.60
2023-05-02T06:42:02.928Z,249.97
2023-05-02T06:43:02.905Z,249.48
2023-05-02T06:44:02.897Z,247.67
2023-05-02T06:45:02.984Z,249.47
2023-05-02T06:46:02.937Z,247.00
2023-05-02T06:47:03.057Z,245.73
2023-05-02T06:48:03.017Z,245.94
2023-05-02T06:49:03.180Z,246.60
2023-05-02T06:50:03.215Z,246.33
2023-05-02T06:51:03.095Z,245.60
2023-05-02T06:52:03.129Z,245.90
2023-05-02T06:53:03.116Z,246.24
2023-05-02T06:54:03.157Z,246.85
2023-05-02T06:55:03.142Z,242.54
2023-05-02T06:56:03.231Z,236.83
2023-05-02T06:57:03.213Z,240.47
2023-05-02T06:58:03.240Z,238.82
2023-05-02T06:59:03.333Z,241.72
2023-05-02T07:00:03.866Z,242.86
2023-05-02T07:01:03.436Z,242.85
2023-05-02T07:02:05.444Z,242.84
2023-05-02T07:03:05.175Z,242.76
2023-05-02T07:04:03.489Z,242.65
2023-05-02T07:05:03.473Z,243.15
2023-05-02T07:06:03.524Z,243.18
2023-05-02T07:07:03.511Z,243.46
2023-05-02T07:08:03.564Z,243.91
2023-05-02T07:09:03.564Z,243.90
2023-05-02T07:10:04.078Z,244.02
2023-05-02T07:11:03.637Z,244.62
2023-05-02T07:12:06.032Z,244.78
2023-05-02T07:13:03.602Z,245.37
2023-05-02T07:14:03.616Z,245.44
2023-05-02T07:15:03.634Z,245.66
2023-05-02T07:16:03.658Z,245.39
2023-05-02T07:17:03.667Z,246.21
2023-05-02T07:18:03.655Z,245.71
2023-05-02T07:19:03.595Z,246.60
2023-05-02T07:20:03.931Z,246.34
2023-05-02T07:21:03.552Z,247.13
2023-05-02T07:22:03.568Z,247.97
2023-05-02T07:23:03.562Z,247.18
2023-05-02T07:24:03.535Z,247.64
2023-05-02T07:25:03.576Z,247.22
2023-05-02T07:26:06.129Z,247.53
2023-05-02T07:27:03.518Z,247.60
2023-05-02T07:28:03.546Z,247.67
2023-05-02T07:29:03.548Z,247.86
2023-05-02T07:30:03.775Z,248.73
2023-05-02T07:31:03.494Z,251.25
2023-05-02T07:32:03.546Z,249.84
2023-05-02T07:33:03.486Z,249.56
2023-05-02T07:34:03.496Z,249.37
2023-05-02T07:35:03.465Z,248.89
2023-05-02T07:36:03.450Z,249.16
2023-05-02T07:37:03.459Z,248.85
2023-05-02T07:38:03.449Z,249.36
2023-05-02T07:39:03.431Z,249.26
2023-05-02T07:40:03.782Z,249.20
2023-05-02T07:41:03.429Z,250.00
2023-05-02T07:42:03.398Z,250.00
2023-05-02T07:43:03.423Z,248.46
2023-05-02T07:44:03.874Z,245.16
2023-05-02T07:45:03.567Z,244.85
2023-05-02T07:46:03.542Z,234.09
2023-05-02T07:47:03.382Z,212.79
2023-05-02T07:48:03.402Z,206.21
2023-05-02T07:49:03.756Z,203.06
2023-05-02T07:50:03.761Z,202.01
2023-05-02T07:51:03.353Z,205.38
2023-05-02T07:52:03.333Z,209.38
2023-05-02T07:53:03.385Z,211.59
2023-05-02T07:54:03.345Z,212.97
2023-05-02T07:55:03.330Z,213.99
2023-05-02T07:56:03.307Z,214.14
2023-05-02T07:57:03.363Z,214.12
2023-05-02T07:58:03.343Z,215.79
2023-05-02T07:59:05.417Z,216.43
2023-05-02T08:00:03.548Z,217.78
2023-05-02T08:01:03.269Z,218.06
2023-05-02T08:02:03.265Z,218.82
2023-05-02T08:03:03.427Z,219.55
2023-05-02T08:04:03.411Z,219.64
2023-05-02T08:05:03.634Z,220.48
2023-05-02T08:06:03.410Z,221.13
2023-05-02T08:07:03.408Z,220.95
2023-05-02T08:08:03.433Z,221.06
2023-05-02T08:09:03.460Z,221.41
2023-05-02T08:10:03.809Z,221.47
2023-05-02T08:11:03.499Z,222.05
2023-05-02T08:12:03.537Z,223.56
2023-05-02T08:13:03.524Z,223.61
2023-05-02T08:14:03.554Z,225.53
2023-05-02T08:15:03.573Z,228.25
2023-05-02T08:16:03.623Z,227.99
2023-05-02T08:17:03.566Z,227.80
2023-05-02T08:18:03.617Z,226.99
2023-05-02T08:19:03.617Z,227.90
2023-05-02T08:20:03.667Z,229.05
2023-05-02T08:21:03.573Z,227.82
2023-05-02T08:22:03.577Z,234.86
2023-05-02T08:23:03.624Z,230.37
2023-05-02T08:24:03.670Z,228.65
2023-05-02T08:25:03.679Z,229.20
2023-05-02T08:26:03.634Z,230.17
2023-05-02T08:27:03.677Z,230.75
2023-05-02T08:28:03.693Z,230.34
2023-05-02T08:29:03.664Z,230.81
2023-05-02T08:30:03.880Z,231.14
2023-05-02T08:31:03.741Z,231.64
2023-05-02T08:32:03.808Z,231.16
2023-05-02T08:33:03.780Z,229.13
2023-05-02T08:34:03.756Z,230.59
2023-05-02T08:35:03.812Z,233.52
2023-05-02T08:36:03.795Z,235.08
2023-05-02T08:37:03.787Z,235.63
2023-05-02T08:38:03.763Z,239.10
2023-05-02T08:39:03.813Z,237.82
2023-05-02T08:40:04.047Z,233.60
2023-05-02T08:41:03.834Z,231.07
2023-05-02T08:42:03.835Z,230.42
2023-05-02T08:43:03.819Z,231.29
2023-05-02T08:44:03.826Z,229.99
2023-05-02T08:45:04.092Z,230.58
2023-05-02T08:46:03.853Z,230.20
2023-05-02T08:47:03.922Z,231.22
2023-05-02T08:48:03.900Z,230.72
2023-05-02T08:49:03.865Z,230.28
2023-05-02T08:50:04.063Z,226.65
2023-05-02T08:51:04.123Z,217.72
2023-05-02T08:52:04.048Z,208.52
2023-05-02T08:53:03.990Z,203.47
2023-05-02T08:54:04.054Z,199.57
2023-05-02T08:55:04.364Z,191.40
2023-05-02T08:56:04.113Z,196.33
2023-05-02T08:57:04.155Z,198.81
2023-05-02T08:58:04.245Z,200.33
2023-05-02T08:59:04.272Z,204.86
2023-05-02T09:00:04.301Z,209.38
2023-05-02T09:01:04.391Z,212.29
2023-05-02T09:02:04.414Z,214.13
2023-05-02T09:03:04.446Z,217.61
2023-05-02T09:04:04.420Z,239.87
2023-05-02T09:05:06.147Z,238.74
2023-05-02T09:06:04.506Z,240.27
2023-05-02T09:07:04.520Z,229.34
2023-05-02T09:08:04.580Z,227.74
2023-05-02T09:09:04.622Z,227.59
2023-05-02T09:10:04.650Z,227.49
2023-05-02T09:11:04.716Z,229.58
2023-05-02T09:12:04.717Z,229.02
2023-05-02T09:13:04.784Z,228.64
2023-05-02T09:14:04.836Z,229.75
2023-05-02T09:15:04.843Z,231.24
2023-05-02T09:16:04.855Z,233.40
2023-05-02T09:17:04.955Z,235.27
2023-05-02T09:18:04.971Z,236.87
2023-05-02T09:19:04.932Z,249.27
2023-05-02T09:20:04.938Z,249.33
2023-05-02T09:21:05.084Z,242.93
2023-05-02T09:22:04.959Z,239.47
2023-05-02T09:23:04.960Z,239.44
2023-05-02T09:24:04.988Z,241.55
2023-05-02T09:25:05.002Z,242.41
2023-05-02T09:26:05.096Z,243.22
2023-05-02T09:27:05.086Z,244.17
2023-05-02T09:28:05.071Z,243.83
2023-05-02T09:29:05.053Z,242.89
2023-05-02T09:30:05.103Z,224.67
2023-05-02T09:31:05.114Z,204.05
2023-05-02T09:32:06.153Z,198.28
2023-05-02T09:33:05.269Z,205.05
2023-05-02T09:34:05.230Z,207.15
2023-05-02T09:35:05.268Z,211.39
2023-05-02T09:36:05.340Z,214.94
2023-05-02T09:37:05.425Z,214.19
2023-05-02T09:38:05.404Z,212.11
2023-05-02T09:39:05.478Z,211.39
2023-05-02T09:40:05.491Z,210.90
2023-05-02T09:41:05.684Z,209.56
2023-05-02T09:42:05.543Z,210.85
2023-05-02T09:43:05.575Z,212.63
2023-05-02T09:44:05.653Z,212.41
2023-05-02T09:45:05.570Z,214.36
2023-05-02T09:46:06.157Z,214.82
2023-05-02T09:47:05.651Z,214.66
2023-05-02T09:48:05.680Z,216.86
2023-05-02T09:49:05.712Z,217.93
2023-05-02T09:50:05.764Z,223.77
2023-05-02T09:51:05.743Z,223.27
2023-05-02T09:52:05.763Z,223.35
2023-05-02T09:53:06.097Z,222.46
2023-05-02T09:54:05.798Z,222.06
2023-05-02T09:55:05.845Z,220.89
2023-05-02T09:56:05.912Z,220.59
2023-05-02T09:57:05.919Z,217.10
2023-05-02T09:58:05.941Z,216.85
2023-05-02T09:59:05.992Z,217.73
2023-05-02T10:00:06.015Z,218.20
2023-05-02T10:01:06.147Z,217.57
2023-05-02T10:02:06.117Z,216.55
2023-05-02T10:03:06.221Z,215.68
2023-05-02T10:04:06.230Z,214.86
2023-05-02T10:05:06.240Z,215.10
2023-05-02T10:06:06.363Z,214.36
2023-05-02T10:07:06.387Z,214.22
2023-05-02T10:08:06.420Z,213.31
2023-05-02T10:09:06.445Z,211.89
2023-05-02T10:10:06.482Z,212.53
2023-05-02T10:11:06.534Z,211.52
2023-05-02T10:12:06.600Z,210.68
2023-05-02T10:13:06.644Z,209.95
2023-05-02T10:14:06.666Z,209.49
2023-05-02T10:15:06.782Z,208.46
2023-05-02T10:16:06.799Z,207.82
2023-05-02T10:17:06.850Z,205.60
2023-05-02T10:18:06.932Z,205.61
2023-05-02T10:19:06.913Z,205.06
2023-05-02T10:20:07.028Z,204.07
2023-05-02T10:21:07.023Z,203.02
2023-05-02T10:22:07.086Z,202.52
2023-05-02T10:23:07.123Z,200.68
2023-05-02T10:24:07.184Z,200.41
2023-05-02T10:25:07.223Z,197.60
2023-05-02T10:26:07.273Z,198.18
2023-05-02T10:27:07.293Z,199.16
2023-05-02T10:28:07.302Z,198.52
2023-05-02T10:29:07.371Z,197.98
2023-05-02T10:30:07.441Z,197.92
2023-05-02T10:31:07.504Z,197.89
2023-05-02T10:32:07.556Z,197.28
2023-05-02T10:33:07.620Z,189.61
2023-05-02T10:34:07.629Z,193.19
2023-05-02T10:35:07.667Z,194.04
2023-05-02T10:36:08.141Z,192.48
2023-05-02T10:37:07.764Z,188.77
2023-05-02T10:38:07.758Z,189.17
2023-05-02T10:39:07.804Z,197.19
2023-05-02T10:40:07.899Z,194.52
2023-05-02T10:41:08.111Z,191.29
2023-05-02T10:42:07.931Z,189.76
2023-05-02T10:43:07.959Z,187.07
2023-05-02T10:44:07.972Z,187.26
2023-05-02T10:45:07.983Z,195.34
2023-05-02T10:46:08.040Z,191.06
2023-05-02T10:47:08.130Z,189.54
2023-05-02T10:48:08.169Z,189.92
2023-05-02T10:49:08.201Z,191.16
2023-05-02T10:50:08.231Z,188.93
2023-05-02T10:51:08.304Z,188.56
2023-05-02T10:52:08.385Z,190.32
2023-05-02T10:53:08.406Z,190.98
2023-05-02T10:54:08.452Z,192.67
2023-05-02T10:55:08.509Z,193.61
2023-05-02T10:56:08.555Z,193.77
2023-05-02T10:57:08.626Z,196.73
2023-05-02T10:58:08.656Z,199.67
2023-05-02T10:59:08.689Z,199.68
2023-05-02T11:00:08.743Z,199.33
2023-05-02T11:01:08.824Z,201.35
2023-05-02T11:02:08.879Z,201.19
2023-05-02T11:03:09.055Z,200.32
2023-05-02T11:04:08.947Z,200.00
2023-05-02T11:05:08.958Z,204.39
2023-05-02T11:06:09.094Z,200.35
2023-05-02T11:07:09.014Z,201.06
2023-05-02T11:08:09.029Z,200.69
2023-05-02T11:09:09.092Z,202.53
2023-05-02T11:10:09.098Z,202.96
2023-05-02T11:11:09.138Z,203.39
2023-05-02T11:12:09.138Z,203.67
2023-05-02T11:13:09.205Z,203.81
2023-05-02T11:14:09.176Z,205.00
2023-05-02T11:15:09.223Z,211.21
2023-05-02T11:16:09.279Z,207.82
2023-05-02T11:17:09.292Z,195.39
2023-05-02T11:18:09.445Z,191.73
2023-05-02T11:19:09.358Z,187.67
2023-05-02T11:20:09.407Z,170.91
2023-05-02T11:21:09.648Z,165.97
2023-05-02T11:22:09.507Z,161.53
2023-05-02T11:23:09.541Z,159.17
2023-05-02T11:24:09.575Z,158.51
2023-05-02T11:25:09.619Z,161.81
2023-05-02T11:26:09.613Z,163.46
2023-05-02T11:27:09.614Z,149.81
2023-05-02T11:28:09.580Z,145.83
2023-05-02T11:29:09.605Z,140.36
2023-05-02T11:30:09.847Z,138.83
2023-05-02T11:31:10.313Z,140.52
2023-05-02T11:32:09.691Z,143.28
2023-05-02T11:33:10.172Z,146.31
2023-05-02T11:34:09.716Z,150.91
2023-05-02T11:35:09.690Z,152.59
2023-05-02T11:36:10.170Z,150.83
2023-05-02T11:37:09.745Z,154.37
2023-05-02T11:38:09.804Z,157.82
2023-05-02T11:39:09.795Z,158.48
2023-05-02T11:40:09.812Z,161.15
2023-05-02T11:41:09.811Z,161.40
2023-05-02T11:42:09.859Z,162.31
2023-05-02T11:43:09.866Z,162.95
2023-05-02T11:44:09.918Z,163.68
2023-05-02T11:45:09.946Z,163.93
2023-05-02T11:46:09.991Z,162.61
2023-05-02T11:47:10.017Z,162.56
2023-05-02T11:48:10.106Z,161.98
2023-05-02T11:49:11.532Z,163.08
2023-05-02T11:50:10.187Z,164.91
2023-05-02T11:51:10.180Z,164.21
2023-05-02T11:52:10.241Z,162.10
2023-05-02T11:53:10.278Z,161.05
2023-05-02T11:54:10.348Z,159.60
2023-05-02T11:55:11.622Z,159.54
2023-05-02T11:56:10.372Z,160.24
2023-05-02T11:57:10.389Z,160.55
2023-05-02T11:58:10.456Z,160.36
2023-05-02T11:59:10.479Z,161.06
2023-05-02T12:00:10.524Z,160.24
2023-05-02T12:01:11.094Z,142.78
2023-05-02T12:02:10.585Z,126.71
2023-05-02T12:03:10.728Z,118.67
2023-05-02T12:04:10.710Z,111.64
2023-05-02T12:05:10.784Z,101.17
2023-05-02T12:06:10.901Z,95.16
2023-05-02T12:07:12.163Z,91.50
2023-05-02T12:08:10.775Z,91.20
2023-05-02T12:09:10.809Z,85.53
2023-05-02T12:10:11.049Z,86.50
2023-05-02T12:11:10.807Z,81.74
2023-05-02T12:12:10.808Z,79.00
2023-05-02T12:13:11.899Z,79.97
2023-05-02T12:14:10.896Z,84.60
2023-05-02T12:15:10.933Z,88.83
2023-05-02T12:16:11.053Z,97.68
2023-05-02T12:17:10.957Z,102.08
2023-05-02T12:18:11.010Z,106.32
2023-05-02T12:19:11.010Z,116.65
2023-05-02T12:20:11.059Z,116.79
2023-05-02T12:21:11.031Z,119.27
2023-05-02T12:22:11.036Z,123.13
2023-05-02T12:23:11.015Z,127.17
2023-05-02T12:24:11.101Z,132.62
2023-05-02T12:25:11.097Z,135.61
2023-05-02T12:26:11.097Z,152.00
2023-05-02T12:27:11.079Z,155.44
2023-05-02T12:28:11.112Z,161.88
2023-05-02T12:29:11.139Z,165.63